createdAt,value
2018-06-10T00:01:26.090Z,11.10
2018-06-10T00:03:55.431Z,9.00
2018-06-10T00:06:24.783Z,8.40
2018-06-10T00:08:54.136Z,7.77
2018-06-10T00:11:23.492Z,8.57
2018-06-10T00:13:52.901Z,10.60
2018-06-10T00:16:22.280Z,7.80
2018-06-10T00:18:51.658Z,10.67
2018-06-10T00:21:21.047Z,7.80
2018-06-10T00:23:50.416Z,7.30
2018-06-10T00:26:19.827Z,7.37
2018-06-10T00:28:54.577Z,8.20
2018-06-10T00:31:23.978Z,9.90
2018-06-10T00:33:53.359Z,9.03
2018-06-10T00:36:22.754Z,8.63
2018-06-10T00:38:52.123Z,12.77
2018-06-10T00:41:21.514Z,13.50
2018-06-10T00:43:50.624Z,8.47
2018-06-10T00:46:20.027Z,10.23
2018-06-10T00:48:49.404Z,10.37
2018-06-10T00:51:18.516Z,10.47
2018-06-10T00:53:47.924Z,9.47
2018-06-10T00:56:34.316Z,13.27
2018-06-10T00:59:03.705Z,10.30
2018-06-10T01:01:32.844Z,10.43
2018-06-10T01:04:02.233Z,13.40
2018-06-10T01:06:31.636Z,16.83
2018-06-10T01:09:01.033Z,13.60
2018-06-10T01:11:30.408Z,15.20
2018-06-10T01:13:59.519Z,11.60
2018-06-10T01:16:28.902Z,10.30
2018-06-10T01:18:58.285Z,10.43
2018-06-10T01:21:27.663Z,9.77
2018-06-10T01:23:57.089Z,9.17
2018-06-10T01:26:31.823Z,7.80
2018-06-10T01:29:01.225Z,13.00
2018-06-10T01:31:30.602Z,7.63
2018-06-10T01:33:59.992Z,8.50
2018-06-10T01:36:29.395Z,16.03
2018-06-10T01:38:58.793Z,11.63
2018-06-10T01:41:28.164Z,8.30
2018-06-10T01:43:57.567Z,7.53
2018-06-10T01:46:26.944Z,13.53
2018-06-10T01:48:56.091Z,13.23
2018-06-10T01:51:25.515Z,16.50
2018-06-10T01:53:54.913Z,14.00
2018-06-10T01:56:24.297Z,25.12
2018-06-10T01:58:53.698Z,52.47
2018-06-10T02:01:23.093Z,46.87
2018-06-10T02:03:52.495Z,71.63
2018-06-10T02:06:21.879Z,61.00
2018-06-10T02:08:51.292Z,27.43
2018-06-10T02:11:20.660Z,9.50
2018-06-10T02:13:49.794Z,6.90
2018-06-10T02:16:19.184Z,17.03
2018-06-10T02:18:48.580Z,14.13
2018-06-10T02:21:17.963Z,12.77
2018-06-10T02:23:47.075Z,7.47
2018-06-10T02:26:16.463Z,8.40
2018-06-10T02:28:45.604Z,8.50
2018-06-10T02:31:14.978Z,15.47
2018-06-10T02:33:44.359Z,12.07
2018-06-10T02:36:13.492Z,12.53
2018-06-10T02:38:42.874Z,10.37
2018-06-10T02:41:12.271Z,10.40
2018-06-10T02:43:41.668Z,10.20
2018-06-10T02:46:10.795Z,9.67
2018-06-10T02:48:40.188Z,10.80
2018-06-10T02:51:09.598Z,10.70
2018-06-10T02:53:38.915Z,9.50
2018-06-10T02:56:09.315Z,9.90
2018-06-10T02:58:38.657Z,9.83
2018-06-10T03:01:07.969Z,9.53
2018-06-10T03:03:37.276Z,7.37
2018-06-10T03:06:06.599Z,8.70
2018-06-10T03:08:35.935Z,11.00
2018-06-10T03:11:05.262Z,14.23
2018-06-10T03:13:34.581Z,9.10
2018-06-10T03:16:03.901Z,8.17
2018-06-10T03:18:33.224Z,8.07
2018-06-10T03:21:02.548Z,23.43
2018-06-10T03:23:31.872Z,30.70
2018-06-10T03:26:01.189Z,13.53
2018-06-10T03:28:30.496Z,8.70
2018-06-10T03:30:59.576Z,10.67
2018-06-10T03:33:28.880Z,11.17
2018-06-10T03:35:57.943Z,19.57
2018-06-10T03:38:27.265Z,24.00
2018-06-10T03:40:56.587Z,35.07
2018-06-10T03:43:25.678Z,24.73
2018-06-10T03:45:54.743Z,11.30
2018-06-10T03:48:24.044Z,8.40
2018-06-10T03:50:53.376Z,8.30
2018-06-10T03:53:22.468Z,23.00
2018-06-10T03:55:51.526Z,7.00
2018-06-10T03:58:20.839Z,14.43
2018-06-10T04:00:50.168Z,10.40
2018-06-10T04:03:19.489Z,14.80
2018-06-10T04:05:48.829Z,16.75
2018-06-10T04:08:18.136Z,9.75
2018-06-10T04:10:47.450Z,11.17
2018-06-10T04:13:16.791Z,7.90
2018-06-10T04:15:46.092Z,7.23
2018-06-10T04:18:15.420Z,8.38
2018-06-10T04:20:44.744Z,8.63
2018-06-10T04:23:14.085Z,23.27
2018-06-10T04:25:43.379Z,28.83
2018-06-10T04:28:12.700Z,20.47
2018-06-10T04:30:42.035Z,27.40
2018-06-10T04:33:11.369Z,21.63
2018-06-10T04:35:40.695Z,31.63
2018-06-10T04:38:10.024Z,21.33
2018-06-10T04:40:39.343Z,16.00
2018-06-10T04:43:08.657Z,15.70
2018-06-10T04:45:37.960Z,19.47
2018-06-10T04:48:07.047Z,7.57
2018-06-10T04:50:36.363Z,9.03
2018-06-10T04:53:05.484Z,9.90
2018-06-10T04:55:34.775Z,9.17
2018-06-10T04:58:04.094Z,10.30
2018-06-10T05:00:33.385Z,9.63
2018-06-10T05:03:02.707Z,11.40
2018-06-10T05:05:32.013Z,10.60
2018-06-10T05:08:01.336Z,15.87
2018-06-10T05:10:30.660Z,13.80
2018-06-10T05:12:59.739Z,13.90
2018-06-10T05:15:28.833Z,15.47
2018-06-10T05:17:58.153Z,17.87
2018-06-10T05:20:27.467Z,16.77
2018-06-10T05:22:56.829Z,18.30
2018-06-10T05:25:26.152Z,16.13
2018-06-10T05:27:55.487Z,15.57
2018-06-10T05:30:24.802Z,16.63
2018-06-10T05:32:54.124Z,14.67
2018-06-10T05:35:23.428Z,18.50
2018-06-10T05:37:52.769Z,14.20
2018-06-10T05:40:22.080Z,14.53
2018-06-10T05:42:51.420Z,14.37
2018-06-10T05:45:20.748Z,14.17
2018-06-10T05:47:49.832Z,14.30
2018-06-10T05:50:18.900Z,19.40
2018-06-10T05:52:48.237Z,17.33
2018-06-10T05:55:17.302Z,19.87
2018-06-10T05:57:46.623Z,30.80
2018-06-10T06:00:15.717Z,37.43
2018-06-10T06:02:44.778Z,41.37
2018-06-10T06:05:14.112Z,42.03
2018-06-10T06:07:43.178Z,41.17
2018-06-10T06:10:12.493Z,37.30
2018-06-10T06:12:41.831Z,39.27
2018-06-10T06:15:15.400Z,49.60
2018-06-10T06:17:44.817Z,41.57
2018-06-10T06:20:13.889Z,48.87
2018-06-10T06:22:43.185Z,46.93
2018-06-10T06:25:12.495Z,47.87
2018-06-10T06:27:41.825Z,46.03
2018-06-10T06:30:11.124Z,47.83
2018-06-10T06:32:40.441Z,46.23
2018-06-10T06:35:09.812Z,46.18
2018-06-10T06:37:38.892Z,48.77
2018-06-10T06:40:08.865Z,52.55
2018-06-10T06:42:38.160Z,54.30
2018-06-10T06:45:07.500Z,52.53
2018-06-10T06:47:36.797Z,54.77
2018-06-10T06:50:06.104Z,60.20
2018-06-10T06:52:35.452Z,61.97
2018-06-10T06:55:04.704Z,54.40
2018-06-10T06:57:34.042Z,54.07
2018-06-10T07:00:03.401Z,63.20
2018-06-10T07:02:32.690Z,57.77
2018-06-10T07:05:02.017Z,59.87
2018-06-10T07:07:31.079Z,60.83
2018-06-10T07:10:00.411Z,66.23
2018-06-10T07:12:29.711Z,63.00
2018-06-10T07:14:59.037Z,58.53
2018-06-10T07:17:28.328Z,59.67
2018-06-10T07:19:57.679Z,56.83
2018-06-10T07:22:26.934Z,55.00
2018-06-10T07:24:56.260Z,59.40
2018-06-10T07:27:25.572Z,60.47
2018-06-10T07:29:54.882Z,55.43
2018-06-10T07:32:24.214Z,55.50
2018-06-10T07:34:53.508Z,58.07
2018-06-10T07:37:22.562Z,60.87
2018-06-10T07:39:51.860Z,58.53
2018-06-10T07:42:21.169Z,56.77
2018-06-10T07:44:50.467Z,52.20
2018-06-10T07:47:19.796Z,49.37
2018-06-10T07:49:49.101Z,48.63
2018-06-10T07:52:18.414Z,49.67
2018-06-10T07:54:47.479Z,48.93
2018-06-10T07:57:16.794Z,48.33
2018-06-10T07:59:46.091Z,51.13
2018-06-10T08:02:15.395Z,48.95
2018-06-10T08:04:44.686Z,43.90
2018-06-10T08:07:13.988Z,43.47
2018-06-10T08:09:43.292Z,39.87
2018-06-10T08:12:12.612Z,45.23
2018-06-10T08:14:41.688Z,44.07
2018-06-10T08:17:10.985Z,47.60
2018-06-10T08:19:40.548Z,39.77
2018-06-10T08:22:09.872Z,41.73
2018-06-10T08:24:39.177Z,40.30
2018-06-10T08:27:08.495Z,40.20
2018-06-10T08:29:37.813Z,41.30
2018-06-10T08:32:07.210Z,36.00
2018-06-10T08:34:36.284Z,36.77
2018-06-10T08:37:05.826Z,39.30
2018-06-10T08:39:35.146Z,39.27
2018-06-10T08:42:04.457Z,41.83
2018-06-10T08:44:33.768Z,37.87
2018-06-10T08:47:03.160Z,39.53
2018-06-10T08:49:32.472Z,35.33
2018-06-10T08:52:01.784Z,33.47
2018-06-10T08:54:31.168Z,34.57
2018-06-10T08:57:00.549Z,35.20
2018-06-10T08:59:29.857Z,32.37
2018-06-10T09:01:59.191Z,34.50
2018-06-10T09:04:28.526Z,36.53
2018-06-10T09:06:57.845Z,33.10
2018-06-10T09:09:27.165Z,33.27
2018-06-10T09:11:56.476Z,31.93
2018-06-10T09:14:25.813Z,32.05
2018-06-10T09:16:54.878Z,34.20
2018-06-10T09:19:24.199Z,33.10
2018-06-10T09:21:53.279Z,31.50
2018-06-10T09:24:22.604Z,38.23
2018-06-10T09:26:51.666Z,33.60
2018-06-10T09:29:20.992Z,31.57
2018-06-10T09:31:50.285Z,30.83
2018-06-10T09:34:19.592Z,33.40
2018-06-10T09:36:48.651Z,32.40
2018-06-10T09:39:17.960Z,30.57
2018-06-10T09:41:47.269Z,33.13
2018-06-10T09:44:16.576Z,31.82
2018-06-10T09:46:45.899Z,32.63
2018-06-10T09:49:15.208Z,27.47
2018-06-10T09:51:44.512Z,26.63
2018-06-10T09:54:13.848Z,27.67
2018-06-10T09:56:43.156Z,27.13
2018-06-10T09:59:12.495Z,27.00
2018-06-10T10:01:41.841Z,27.43
2018-06-10T10:04:11.163Z,23.50
2018-06-10T10:06:40.500Z,22.37
2018-06-10T10:09:09.583Z,25.90
2018-06-10T10:11:38.690Z,23.70
2018-06-10T10:14:09.111Z,24.33
2018-06-10T10:16:38.184Z,27.63
2018-06-10T10:19:07.561Z,23.53
2018-06-10T10:21:36.867Z,34.73
2018-06-10T10:24:06.241Z,22.00
2018-06-10T10:26:35.486Z,18.80
2018-06-10T10:29:04.786Z,20.77
2018-06-10T10:31:34.108Z,19.13
2018-06-10T10:34:03.190Z,20.63
2018-06-10T10:36:32.267Z,18.70
2018-06-10T10:39:01.589Z,19.93
2018-06-10T10:41:30.690Z,17.67
2018-06-10T10:43:59.759Z,20.17
2018-06-10T10:46:29.093Z,17.27
2018-06-10T10:48:58.250Z,18.63
2018-06-10T10:51:27.568Z,16.60
2018-06-10T10:53:56.875Z,14.83
2018-06-10T10:56:25.975Z,14.60
2018-06-10T10:58:55.052Z,13.70
2018-06-10T11:01:24.433Z,14.20
2018-06-10T11:03:53.753Z,16.17
2018-06-10T11:06:23.072Z,16.10
2018-06-10T11:08:52.165Z,12.77
2018-06-10T11:11:21.247Z,13.53
2018-06-10T11:13:50.576Z,15.10
2018-06-10T11:16:19.894Z,12.23
2018-06-10T11:18:49.216Z,14.70
2018-06-10T11:21:18.539Z,10.70
2018-06-10T11:23:47.873Z,13.13
2018-06-10T11:26:16.940Z,11.07
2018-06-10T11:28:46.240Z,12.37
2018-06-10T11:31:15.543Z,13.40
2018-06-10T11:33:44.856Z,13.80
2018-06-10T11:36:14.173Z,11.45
2018-06-10T11:38:43.524Z,12.30
2018-06-10T11:41:12.852Z,12.50
2018-06-10T11:43:42.173Z,11.93
2018-06-10T11:46:11.474Z,11.07
2018-06-10T11:48:40.787Z,11.80
2018-06-10T11:51:10.137Z,11.73
2018-06-10T11:53:39.471Z,13.13
2018-06-10T11:56:09.192Z,11.93
2018-06-10T11:58:38.527Z,10.67
2018-06-10T12:01:07.833Z,9.93
2018-06-10T12:03:37.131Z,11.03
2018-06-10T12:06:06.456Z,13.83
2018-06-10T12:08:35.780Z,9.03
2018-06-10T12:11:05.112Z,12.20
2018-06-10T12:13:34.442Z,9.67
2018-06-10T12:16:03.752Z,10.93
2018-06-10T12:18:33.084Z,12.50
2018-06-10T12:21:02.384Z,10.53
2018-06-10T12:23:31.723Z,9.10
2018-06-10T12:26:01.073Z,10.20
2018-06-10T12:28:30.163Z,10.23
2018-06-10T12:30:59.479Z,9.47
2018-06-10T12:33:28.594Z,11.63
2018-06-10T12:35:57.933Z,10.67
2018-06-10T12:38:27.262Z,10.60
2018-06-10T12:40:56.570Z,12.60
2018-06-10T12:43:25.621Z,10.97
2018-06-10T12:45:54.921Z,11.57
2018-06-10T12:48:24.229Z,9.63
2018-06-10T12:50:53.531Z,10.60
2018-06-10T12:53:22.859Z,9.50
2018-06-10T12:55:52.181Z,10.23
2018-06-10T12:58:21.513Z,11.07
2018-06-10T13:00:50.837Z,8.77
2018-06-10T13:03:20.148Z,13.23
2018-06-10T13:05:49.482Z,10.20
2018-06-10T13:08:18.792Z,10.63
2018-06-10T13:10:48.138Z,10.73
2018-06-10T13:13:17.452Z,10.80
2018-06-10T13:15:46.747Z,12.17
2018-06-10T13:18:16.076Z,13.43
2018-06-10T13:20:45.395Z,11.20
2018-06-10T13:23:14.750Z,11.30
2018-06-10T13:25:44.256Z,12.93
2018-06-10T13:28:13.580Z,12.55
2018-06-10T13:30:42.907Z,12.07
2018-06-10T13:33:12.232Z,12.15
2018-06-10T13:35:41.556Z,13.50
2018-06-10T13:38:10.871Z,12.50
2018-06-10T13:40:40.184Z,13.77
2018-06-10T13:43:09.496Z,10.78
2018-06-10T13:45:38.815Z,10.98
2018-06-10T13:48:09.024Z,11.02
2018-06-10T13:50:38.334Z,9.33
2018-06-10T13:53:07.678Z,9.58
2018-06-10T13:55:37.011Z,10.08
2018-06-10T13:58:06.356Z,9.80
2018-06-10T14:00:35.688Z,11.22
2018-06-10T14:03:05.009Z,9.58
2018-06-10T14:05:34.335Z,10.63
2018-06-10T14:08:03.649Z,9.50
2018-06-10T14:10:32.973Z,10.53
2018-06-10T14:13:02.348Z,11.30
2018-06-10T14:15:31.677Z,9.88
2018-06-10T14:18:00.988Z,11.33
2018-06-10T14:20:30.316Z,9.58
2018-06-10T14:22:59.631Z,11.25
2018-06-10T14:25:28.941Z,9.73
2018-06-10T14:27:58.267Z,10.03
2018-06-10T14:30:27.682Z,9.05
2018-06-10T14:32:56.988Z,9.23
2018-06-10T14:35:26.315Z,9.48
2018-06-10T14:37:55.636Z,8.30
2018-06-10T14:40:24.971Z,10.58
2018-06-10T14:42:54.264Z,6.90
2018-06-10T14:45:23.592Z,8.95
2018-06-10T14:47:52.909Z,7.90
2018-06-10T14:50:21.988Z,8.73
2018-06-10T14:52:51.310Z,8.15
2018-06-10T14:55:20.637Z,9.05
2018-06-10T14:57:49.956Z,7.80
2018-06-10T15:00:19.298Z,6.60
2018-06-10T15:02:48.643Z,7.15
2018-06-10T15:05:17.955Z,7.85
2018-06-10T15:07:47.282Z,7.78
2018-06-10T15:10:16.597Z,7.95
2018-06-10T15:12:45.688Z,10.70
2018-06-10T15:15:14.757Z,6.80
2018-06-10T15:17:44.180Z,7.03
2018-06-10T15:20:13.496Z,6.97
2018-06-10T15:22:42.857Z,6.97
2018-06-10T15:25:12.176Z,6.08
2018-06-10T15:27:41.525Z,7.42
2018-06-10T15:30:10.841Z,6.83
2018-06-10T15:32:40.174Z,8.00
2018-06-10T15:35:09.479Z,6.45
2018-06-10T15:37:38.796Z,6.15
2018-06-10T15:40:09.099Z,5.92
2018-06-10T15:42:39.238Z,6.75
2018-06-10T15:45:08.306Z,6.35
2018-06-10T15:47:37.636Z,6.65
2018-06-10T15:50:06.753Z,5.87
2018-06-10T15:52:36.128Z,7.28
2018-06-10T15:55:05.204Z,5.87
2018-06-10T15:57:34.545Z,7.75
2018-06-10T16:00:03.889Z,5.80
2018-06-10T16:02:33.216Z,7.47
2018-06-10T16:05:02.551Z,6.10
2018-06-10T16:07:31.867Z,5.80
2018-06-10T16:10:01.171Z,6.05
2018-06-10T16:12:30.481Z,6.33
2018-06-10T16:15:00.048Z,6.22
2018-06-10T16:17:29.362Z,8.40
2018-06-10T16:19:58.691Z,7.55
2018-06-10T16:22:28.000Z,6.97
2018-06-10T16:24:57.295Z,9.23
2018-06-10T16:27:26.599Z,5.90
2018-06-10T16:29:55.899Z,6.25
2018-06-10T16:32:25.203Z,6.67
2018-06-10T16:34:54.687Z,7.10
2018-06-10T16:37:23.995Z,5.90
2018-06-10T16:39:53.313Z,5.37
2018-06-10T16:42:22.604Z,4.92
2018-06-10T16:44:51.912Z,6.28
2018-06-10T16:47:21.236Z,4.35
2018-06-10T16:49:50.287Z,5.12
2018-06-10T16:52:19.600Z,6.17
2018-06-10T16:54:48.904Z,6.55
2018-06-10T16:57:18.196Z,6.05
2018-06-10T16:59:47.492Z,7.00
2018-06-10T17:02:16.788Z,6.75
2018-06-10T17:04:46.172Z,8.10
2018-06-10T17:07:15.476Z,6.90
2018-06-10T17:09:44.780Z,5.97
2018-06-10T17:12:14.084Z,5.50
2018-06-10T17:14:43.407Z,5.10
2018-06-10T17:17:12.719Z,6.97
2018-06-10T17:19:42.571Z,6.10
2018-06-10T17:22:11.890Z,5.25
2018-06-10T17:24:41.211Z,4.67
2018-06-10T17:27:10.523Z,5.20
2018-06-10T17:29:39.858Z,7.45
2018-06-10T17:32:09.151Z,5.03
2018-06-10T17:34:38.506Z,4.70
2018-06-10T17:37:07.761Z,6.17
2018-06-10T17:39:37.080Z,4.93
2018-06-10T17:42:06.407Z,6.30
2018-06-10T17:44:35.721Z,4.70
2018-06-10T17:47:05.055Z,4.92
2018-06-10T17:49:34.103Z,6.72
2018-06-10T17:52:03.418Z,5.85
2018-06-10T17:54:32.724Z,5.78
2018-06-10T17:57:02.028Z,6.80
2018-06-10T17:59:31.333Z,7.37
2018-06-10T18:02:00.625Z,5.80
2018-06-10T18:04:29.947Z,6.05
2018-06-10T18:06:59.003Z,7.85
2018-06-10T18:09:28.305Z,6.60
2018-06-10T18:11:57.599Z,7.65
2018-06-10T18:14:26.911Z,7.53
2018-06-10T18:16:56.230Z,5.72
2018-06-10T18:19:25.323Z,6.78
2018-06-10T18:21:54.666Z,10.05
2018-06-10T18:24:23.980Z,6.55
2018-06-10T18:26:53.301Z,7.42
2018-06-10T18:29:22.622Z,7.22
2018-06-10T18:31:51.986Z,6.95
2018-06-10T18:34:20.989Z,7.03
2018-06-10T18:36:50.296Z,7.60
2018-06-10T18:39:19.599Z,8.85
2018-06-10T18:41:48.892Z,7.50
2018-06-10T18:44:18.193Z,7.40
2018-06-10T18:46:47.509Z,7.17
2018-06-10T18:49:16.836Z,6.85
2018-06-10T18:51:45.907Z,7.67
2018-06-10T18:54:14.989Z,8.83
2018-06-10T18:56:44.312Z,7.22
2018-06-10T18:59:13.370Z,8.83
2018-06-10T19:01:42.697Z,7.22
2018-06-10T19:04:12.000Z,9.65
2018-06-10T19:06:41.090Z,7.95
2018-06-10T19:09:10.475Z,7.53
2018-06-10T19:11:39.803Z,7.05
2018-06-10T19:14:09.107Z,8.25
2018-06-10T19:16:38.176Z,7.55
2018-06-10T19:19:07.496Z,9.53
2018-06-10T19:21:36.560Z,7.37
2018-06-10T19:24:05.872Z,9.00
2018-06-10T19:26:35.196Z,8.53
2018-06-10T19:29:04.268Z,7.05
2018-06-10T19:31:33.589Z,8.20
2018-06-10T19:34:02.876Z,9.87
2018-06-10T19:36:32.196Z,8.17
2018-06-10T19:39:01.241Z,8.77
2018-06-10T19:41:30.541Z,10.83
2018-06-10T19:43:59.845Z,8.43
2018-06-10T19:46:29.181Z,10.13
2018-06-10T19:48:58.234Z,11.10
2018-06-10T19:51:27.549Z,8.10
2018-06-10T19:53:56.852Z,10.30
2018-06-10T19:56:26.160Z,9.18
2018-06-10T19:58:55.451Z,8.77
2018-06-10T20:01:24.768Z,9.50
2018-06-10T20:03:54.080Z,8.17
2018-06-10T20:06:23.162Z,10.03
2018-06-10T20:08:52.461Z,7.10
2018-06-10T20:11:21.791Z,9.93
2018-06-10T20:13:51.116Z,7.07
2018-06-10T20:16:20.404Z,8.30
2018-06-10T20:18:49.704Z,8.93
2018-06-10T20:21:19.006Z,10.17
2018-06-10T20:23:48.316Z,7.93
2018-06-10T20:26:17.599Z,7.93
2018-06-10T20:28:46.905Z,9.77
2018-06-10T20:31:16.203Z,9.23
2018-06-10T20:33:45.498Z,8.40
2018-06-10T20:36:14.796Z,8.85
2018-06-10T20:38:44.123Z,10.70
2018-06-10T20:41:13.424Z,9.80
2018-06-10T20:43:42.732Z,7.63
2018-06-10T20:46:12.033Z,12.70
2018-06-10T20:48:41.448Z,9.00
2018-06-10T20:51:10.679Z,9.57
2018-06-10T20:53:39.740Z,7.73
2018-06-10T20:56:09.046Z,10.37
2018-06-10T20:58:38.413Z,10.70
2018-06-10T21:01:07.678Z,9.80
2018-06-10T21:03:37.001Z,9.60
2018-06-10T21:06:06.325Z,8.67
2018-06-10T21:08:35.640Z,10.23
2018-06-10T21:11:04.940Z,9.77
2018-06-10T21:13:34.267Z,9.75
2018-06-10T21:16:03.348Z,9.33
2018-06-10T21:18:32.647Z,8.80
2018-06-10T21:21:01.940Z,9.63
2018-06-10T21:23:31.248Z,9.90
2018-06-10T21:26:00.544Z,9.47
2018-06-10T21:28:29.839Z,10.00
2018-06-10T21:30:59.132Z,8.97
2018-06-10T21:33:28.459Z,10.00
2018-06-10T21:35:57.739Z,7.77
2018-06-10T21:38:27.055Z,7.72
2018-06-10T21:40:56.357Z,7.30
2018-06-10T21:43:25.416Z,12.60
2018-06-10T21:45:54.719Z,7.47
2018-06-10T21:48:24.024Z,10.73
2018-06-10T21:50:53.329Z,9.43
2018-06-10T21:53:22.626Z,9.13
2018-06-10T21:55:51.928Z,9.57
2018-06-10T21:58:21.239Z,8.38
2018-06-10T22:00:50.527Z,8.47
2018-06-10T22:03:19.824Z,7.80
2018-06-10T22:05:49.132Z,8.57
2018-06-10T22:08:18.436Z,7.87
2018-06-10T22:10:47.733Z,7.10
2018-06-10T22:13:17.040Z,7.37
2018-06-10T22:15:46.369Z,9.43
2018-06-10T22:18:15.661Z,6.75
2018-06-10T22:20:44.731Z,7.93
2018-06-10T22:23:14.029Z,7.37
2018-06-10T22:25:43.340Z,8.20
2018-06-10T22:28:12.701Z,7.33
2018-06-10T22:30:42.090Z,8.93
2018-06-10T22:33:11.087Z,8.37
2018-06-10T22:35:40.412Z,7.67
2018-06-10T22:38:09.700Z,7.90
2018-06-10T22:40:39.042Z,9.37
2018-06-10T22:43:08.333Z,9.40
2018-06-10T22:45:37.636Z,6.83
2018-06-10T22:48:06.695Z,8.77
2018-06-10T22:50:35.995Z,7.20
2018-06-10T22:55:14.660Z,7.23
2018-06-10T22:57:43.956Z,7.87
2018-06-10T23:00:13.253Z,11.00
2018-06-10T23:02:42.560Z,10.50
2018-06-10T23:05:11.621Z,6.90
2018-06-10T23:07:40.942Z,8.20
2018-06-10T23:10:10.223Z,7.90
2018-06-10T23:12:39.544Z,8.33
2018-06-10T23:15:08.816Z,8.07
2018-06-10T23:17:38.125Z,7.77
2018-06-10T23:20:08.531Z,9.78
2018-06-10T23:22:37.832Z,6.87
2018-06-10T23:25:07.114Z,8.13
2018-06-10T23:27:36.417Z,10.73
2018-06-10T23:30:06.054Z,7.97
2018-06-10T23:32:35.348Z,6.83
2018-06-10T23:35:04.644Z,9.53
2018-06-10T23:37:33.941Z,8.17
2018-06-10T23:40:03.224Z,7.27
2018-06-10T23:42:32.512Z,10.20
2018-06-10T23:45:01.814Z,10.07
2018-06-10T23:47:31.111Z,8.93
2018-06-10T23:50:00.406Z,7.63
2018-06-10T23:52:29.700Z,7.57
2018-06-10T23:54:59.000Z,10.20
2018-06-10T23:57:28.054Z,7.27
2018-06-10T23:59:57.335Z,7.70
